Tiempo atmosférico en la estación meteorológica de Santiago de Compostela Aeropuerto, A Coruña (370 m.)



Fecha
DESCASC
Temp. máxima en grados centígrados (hora)
DESCASC
Temp. mínima en grados centígrados (hora)
DESCASC
Temp. media en grados centígrados
DESCASC
Racha de viento máxima en m/sg (hora)
DESCASC
Velocidad máxima media en intervalos de 10 minutos(hora)
DESCASC
Precipitaciones diarias en mm
DESCASC
Precipitaciones de 00:00 a 06:00 en mm
DESCASC
Precipitaciones de 06:00 a 12:00 en mm
DESCASC
Precipitaciones de 12:00 a 18:00 en mm
DESCASC
Precipitaciones de 18:00 a 24:00 en mm
DESCASC
05-04-2020 15 (03:50) 10.9 (23:30) 12.9 14.44 (04:40) 8.61 (04:40) 16.7 0 3.4 13.3 0
04-04-2020 19.8 (17:00) 8 (04:40) 13.9 11.39 (16:30) 7.22 (17:50) 0 0 0 0 0
03-04-2020 18.7 (17:40) 2.9 (08:00) 10.8 8.89 (15:40) 4.72 (14:20) 0 0 0 0 0
02-04-2020 14.5 (17:40) 7.9 (00:00) 11.2 9.72 (08:50) 5.28 (08:50) 0 0 0 0 0
01-04-2020 15.1 (15:00) 3.4 (00:00) 9.3 9.17 (17:10) 5.28 (17:10) 2.2 0.2 0 0 2
31-03-2020 8.5 (16:40) 1.4 (00:00) 4.9 9.72 (03:30) 3.61 (12:50) 0.5 0 0 0 0.5
30-03-2020 10.1 (14:40) 2.7 (00:00) 6.4 16.11 (12:40) 5.83 (13:20) 0 0 0 0 0
29-03-2020 17.9 (16:00) 4.3 (00:00) 11.1 8.33 (19:00) 3.06 (17:10) 0 0 0 0 0
28-03-2020 18.2 (16:20) 4.4 (00:00) 11.3 8.89 (17:50) 6.94 (18:40) 0 0 0 0 0
27-03-2020 16.2 (17:00) 0.7 (00:00) 8.5 8.33 (19:50) 5.28 (19:50) 0 0 0 0 0
26-03-2020 15.5 (15:50) 4.2 (00:00) 9.8 9.72 (14:50) 5 (19:00) 0 0 0 0 0
25-03-2020 20.2 (15:20) 7.8 (00:00) 14 -- (--) -- (--) 0 0 0 0 0
24-03-2020 20.4 (15:40) 6 (00:00) 13.2 5.83 (15:30) 3.61 (20:30) 0 0 0 0 0
23-03-2020 15.3 (15:20) 7.6 (00:00) 11.5 9.72 (15:50) 6.39 (18:30) 0 0 0 0 0
22-03-2020 16.4 (16:20) 8.6 (07:00) 12.5 8.89 (18:10) 5.56 (18:10) 0 0 0 0 0
21-03-2020 16.3 (14:10) 8.6 (00:00) 12.4 7.22 (16:50) 4.72 (22:00) 15.7 0.3 0 0 15.4
20-03-2020 14.3 (13:20) 9.8 (00:00) 12.1 5 (00:10) 2.78 (13:30) 9 2.1 2.8 3.9 0.2
19-03-2020 19.7 (15:30) 5.8 (00:00) 12.8 7.78 (13:40) 5 (12:20) 0.6 0 0 0 0.6
18-03-2020 22.2 (16:40) 6.8 (00:00) 14.5 5.83 (20:10) 4.44 (21:00) 0 0 0 0 0
17-03-2020 18.1 (17:20) 4.7 (00:00) 11.4 8.33 (00:20) 4.44 (15:30) 0 0 0 0 0
16-03-2020 11 (14:20) 2.8 (00:00) 6.9 13.33 (16:20) 7.5 (16:20) 1.9 1.1 0.8 0 0
15-03-2020 9.9 (11:10) 3 (00:00) 6.4 16.39 (17:50) 9.72 (12:10) 8.9 0 2.4 5.5 1
14-03-2020 17.1 (17:10) 3.2 (00:00) 10.2 6.11 (20:10) 4.17 (20:30) 0 0 0 0 0
13-03-2020 13.6 (17:10) 5.5 (01:30) 9.6 9.72 (10:30) 5 (14:40) 0 0 0 0 0
12-03-2020 12.9 (12:50) 5.9 (00:00) 9.4 10.83 (15:30) 6.11 (16:10) 0 0 0 0 0
11-03-2020 17.7 (17:00) 8.8 (00:00) 13.3 7.22 (14:40) 4.72 (19:00) 0 0 0 0 0
10-03-2020 14.6 (15:00) 5.8 (00:00) 10.2 7.78 (12:40) 5 (13:20) 0 0 0 0 0
09-03-2020 14.1 (16:00) 4.1 (00:00) 9.1 5.83 (12:30) 3.61 (17:30) 0 0 0 0 0

Gráficas

Temp. máximas Temp. mínimas Temp. medias Precipitaciones Rachas de viento máximas Velocidades máximas media en intervalos de 10 minutos

Datos horarios

Fecha y hora oficial Temperatura (ºC) Velocidad del viento (km/h) Dirección del viento Racha (km/h) Dirección de racha Precipitación (mm) Presión (hPa) Tendencia (hPa) Humedad (%)
2020-04-07 23:00:00 13.3 0 Calma 5 Nordeste 0 979.4 1.4 96
2020-04-07 22:00:00 14 6 Oeste 9 Oeste 0 979 1.1 94
2020-04-07 21:00:00 14.9 7 Noroeste 17 Oeste 0 978.2 0.5 89
2020-04-07 20:00:00 16.6 4 Oeste 17 Oeste 0 978 0.3 81
2020-04-07 19:00:00 17.1 11 Oeste 24 Oeste 0 977.9 0.2 79
2020-04-07 18:00:00 17.4 14 Oeste 26 Oeste 0 977.7 -0.1 81
2020-04-07 17:00:00 16.9 14 Oeste 24 Oeste 0 977.7 -0.2 83
2020-04-07 16:00:00 17 5 Oeste 17 Sudoeste 0 977.7 -0.6 84
2020-04-07 15:00:00 15.2 7 Sudoeste 21 Sur 0.1 977.8 -0.1 93
2020-04-07 14:00:00 16.1 11 Sudoeste 24 Oeste 0 977.9 0.4 86
2020-04-07 13:00:00 14 5 Sur 11 Sur 0 978.3 1.1 97
2020-04-07 12:00:00 12.7 5 Sudeste 13 Sur 1 977.9 1.1 100
2020-04-07 11:00:00 13.6 10 Sur 13 Sur 0 977.5 1 89
2020-04-07 10:00:00 12.7 6 Sudeste 11 Sudeste 0 977.2 0.8 90
2020-04-07 09:00:00 11.5 5 Sudeste 11 Sudeste 0 976.8 0.5 93
2020-04-07 08:00:00 10.9 3 Este 11 Este 0 976.5 -0.1 94
2020-04-07 07:00:00 11.2 6 Sudeste 11 Sudeste 0 976.4 -0.4 90
2020-04-07 06:00:00 10.6 5 Sudeste 11 Este 0 976.3 -0.8 92
2020-04-07 05:00:00 10.4 4 Este 11 Este 0 976.6 -0.6 92
2020-04-07 04:00:00 10.6 4 Este 13 Este 0 976.8 -0.3 92
2020-04-07 03:00:00 10.7 3 Este 11 Sudeste 0 977.1 -0.1 91
2020-04-07 02:00:00 10.9 2 Este 8 Nordeste 0.1 977.2 -0.2 88
2020-04-07 01:00:00 11.4 2 Este 9 Nordeste 0 977.1 -0.1 84
2020-04-07 00:00:00 11.5 0 Calma 13 Este 0 977.2 0.4 87
2020-04-06 23:00:00 12 3 Este 9 Oeste 0 977.4 0.6 88
2020-04-06 22:00:00 12.3 0 Calma 8 Nordeste 0 977.2 0.7 85
2020-04-06 21:00:00 12.6 0 Calma 9 Nordeste 0 976.8 0.3 83
2020-04-06 20:00:00 13.1 2 Norte 5 Norte 0 976.8 0 79
2020-04-06 19:00:00 13.7 0 Calma 5 Norte 0 976.5 -0.7 80
2020-04-06 18:00:00 14.2 3 Nordeste 5 Este 0.1 976.5 -0.5 73
2020-04-06 17:00:00 13.5 4 Sudeste 9 Sur 0 976.8 0.2 80
2020-04-06 16:00:00 14.2 4 Sur 11 Sudeste 0 977.2 0.4 69
2020-04-06 15:00:00 14.4 5 Sudeste 11 Sudeste 0 977 0.6 66
2020-04-06 14:00:00 14.6 3 Sudeste 11 Sudeste 0 976.6 0.7 66
2020-04-06 13:00:00 13.5 3 Sudeste 11 Sur 0 976.8 1 74
2020-04-06 12:00:00 12.4 4 Sudeste 11 Sudeste 0 976.4 1.2 87
2020-04-06 11:00:00 10.3 3 Sudeste 8 Sudeste 0 975.9 1.6 100
2020-04-06 10:00:00 9.4 0 Calma 4 Sudeste 0 975.8 2.2 100
2020-04-06 09:00:00 8.4 0 Calma 5 Este 0 975.2 2.3 100
2020-04-06 08:00:00 8.1 3 Sudeste 5 Sur 0 974.3 1.6 100
2020-04-06 07:00:00 8.3 3 Sudeste 11 Sudoeste 0 973.6 1.2 100
2020-04-06 06:00:00 8.8 3 Sur 11 Sur 0 972.9 0.5 100
2020-04-06 05:00:00 9.4 6 Sudoeste 9 Sur 0 972.7 0.4 100
2020-04-06 04:00:00 9.4 8 Sur 9 Sur 0 972.4 0.7 99
2020-04-06 03:00:00 9.8 5 Sudoeste 9 Oeste 0 972.4 0.9 95
2020-04-06 02:00:00 10.1 5 Sudoeste 11 Sudoeste 0 972.3 1.2 97
2020-04-06 01:00:00 10.1 6 Sudoeste 13 Sudoeste 0 971.7 1.7 98
2020-04-06 00:00:00 11 6 Sudoeste 21 Sudoeste 0 971.5 2.2 98
2020-04-05 23:00:00 11.3 10 Sudoeste 21 Sudoeste 0 971.1 2.5 97
2020-04-05 22:00:00 11.4 10 Sudoeste 21 Sudoeste 0 970 2.1 97
2020-04-05 21:00:00 12.1 9 Sudoeste 18 Sur 0 969.3 1.9 92
2020-04-05 20:00:00 13.1 13 Sudoeste 26 Sudoeste 0 968.6 1.8 89
2020-04-05 19:00:00 13.8 15 Sudoeste 30 Sur 0 967.9 1.5 89
2020-04-05 18:00:00 13.6 15 Sudoeste 41 Sur 0 967.4 1.9 92
2020-04-05 17:00:00 13 18 Sudoeste 42 Sudoeste 0.2 966.8 1.3 98
2020-04-05 16:00:00 12.4 19 Sudoeste 48 Sur 4.3 966.4 0.8 97
2020-04-05 15:00:00 13.2 22 Sur 35 Sur 3.9 965.5 0.1 98
2020-04-05 14:00:00 13.2 19 Sur 48 Sur 2.3 965.5 0.4 97
2020-04-05 13:00:00 13 17 Sur 37 Sur 2.6 965.6 0.3 99
2020-04-05 12:00:00 13.4 18 Sur 37 Sudeste 0.8 965.4 0.9 96
2020-04-05 11:00:00 13.2 22 Sur 33 Sudeste 0 965.1 0.9 95
2020-04-05 10:00:00 11.5 13 Sudeste 32 Sur 2.1 965.3 1.3 99
2020-04-05 09:00:00 11.2 13 Sudeste 32 Sudeste 0.4 964.5 0.1 96
2020-04-05 08:00:00 11.6 12 Sudeste 32 Sudeste 0.1 964.2 -0.1 89
2020-04-05 07:00:00 12.1 13 Sudeste 28 Este 0 964 -0.7 83
2020-04-05 06:00:00 12.3 14 Sudeste 28 Sudeste 0 964.4 -0.9 81
2020-04-05 05:00:00 13.2 13 Sudeste 52 Sur 0 964.3 -1 78
2020-04-05 04:00:00 14.9 20 Sur 45 Sur 0 964.7 -1 63
2020-04-05 03:00:00 14.5 14 Sudeste 41 Sur 0 965.3 -0.5 61
2020-04-05 02:00:00 14.8 26 Sur 45 Sur 0 965.3 -0.8 58
2020-04-05 01:00:00 14.6 22 Sur 35 Sur 0 965.7 -0.3 58
2020-04-05 00:00:00 14.2 14 Sur 33 Sur 0 965.8 0 62
2020-04-04 23:00:00 14.1 17 Sur 28 Sur 0 966.1 0.3 64
2020-04-04 22:00:00 13.7 10 Sudoeste 22 Sudoeste 0 966 0.6 67
2020-04-04 21:00:00 14.1 13 Sudoeste 24 Oeste 0 965.8 0.1 65
2020-04-04 20:00:00 15.8 12 Sudoeste 26 Sur 0 965.8 -0.2 63
2020-04-04 19:00:00 17.9 16 Sur 33 Sur 0 965.4 -0.8 46
2020-04-04 18:00:00 18.5 23 Sur 41 Sur 0 965.7 -1.1 43
2020-04-04 17:00:00 19.3 23 Sur 41 Sur 0 966 -1.4 42
2020-04-04 16:00:00 18.9 17 Sudeste 39 Sur 0 966.2 -1.7 43
2020-04-04 15:00:00 18.3 17 Sudeste 37 Sudeste 0 966.8 -1.7 44
2020-04-04 14:00:00 18.6 20 Sur 35 Sur 0 967.4 -1.2 44
2020-04-04 13:00:00 18.2 22 Sudeste 37 Sudeste 0 967.9 -0.8 46
2020-04-04 12:00:00 16.9 17 Sudeste 33 Sudeste 0 968.5 -0.1 51
2020-04-04 11:00:00 13.1 13 Sudeste 26 Sudeste 0 968.6 0.2 62
2020-04-04 10:00:00 10.8 9 Sudeste 22 Sudeste 0 968.7 0.2 68
2020-04-04 09:00:00 8.7 5 Sudeste 17 Sudeste 0 968.6 -0.2 73
2020-04-04 08:00:00 8.8 5 Sudeste 17 Sudeste 0 968.4 -0.8 72
2020-04-04 07:00:00 9 5 Sudeste 15 Este 0 968.5 -1.3 73
2020-04-04 06:00:00 8.4 4 Este 13 Sudeste 0 968.8 -1.5 79
2020-04-04 05:00:00 8.6 6 Este 13 Sudeste 0 969.2 -1.7 80
2020-04-04 04:00:00 8.4 3 Sudeste 8 Este 0 969.8 -1.3 85
2020-04-04 03:00:00 9.8 0 Calma 8 Sudeste 0 970.3 -1 79
2020-04-04 02:00:00 10.4 4 Sudeste 8 Sudeste 0 970.9 -0.3 77
2020-04-04 01:00:00 10.8 4 Sur 5 Sur 0 971.1 0.3 74
2020-04-04 00:00:00 11.2 2 Este 8 Este 0 971.3 0.8 74
2020-04-03 23:00:00 12 4 Oeste 11 Sudoeste 0 971.2 0.6 68
2020-04-03 22:00:00 13.3 8 Sudoeste 15 Sudoeste 0 970.8 0.3 64
2020-04-03 21:00:00 14.3 7 Sudoeste 13 Sudoeste 0 970.5 -0.1 61
2020-04-03 20:00:00 16.9 10 Sudoeste 24 Oeste 0 970.6 -0.5 49
2020-04-03 19:00:00 17.8 13 Oeste 26 Noroeste 0 970.5 -1.1 48
2020-04-03 18:00:00 18.1 13 Oeste 26 Sudoeste 0 970.6 -1.7 46
2020-04-03 17:00:00 18.1 14 Oeste 24 Sudoeste 0 971.1 -1.5 50
2020-04-03 16:00:00 17.6 10 Oeste 32 Sudoeste 0 971.6 -1.5 51
2020-04-03 15:00:00 16.7 15 Sudoeste 26 Sur 0 972.3 -1.1 57
2020-04-03 14:00:00 15.4 15 Sudoeste 28 Oeste 0 972.6 -0.6 59
2020-04-03 13:00:00 13.9 13 Sur 24 Sur 0 973.1 0.1 67
2020-04-03 12:00:00 12 7 Sur 18 Sudeste 0 973.4 0.4 75
2020-04-03 11:00:00 8.7 10 Sudeste 21 Sudeste 0 973.2 0.4 84
2020-04-03 10:00:00 5.9 7 Sudeste 15 Sudeste 0 973 0.1 95
2020-04-03 09:00:00 3.2 4 Este 11 Este 0 973 0 99
2020-04-03 08:00:00 3.1 3 Este 15 Sudeste 0 972.8 -0.5 98
2020-04-03 07:00:00 3.1 3 Este 15 Este 0 972.9 -0.8 98
2020-04-03 06:00:00 3.6 4 Este 11 Este 0 973 -1.3 97
2020-04-03 05:00:00 3.8 0 Calma 9 Este 0 973.3 -1.3 97
2020-04-03 04:00:00 4 0 Calma 8 Este 0 973.7 -1.4 95
2020-04-03 03:00:00 4.7 2 Nordeste 8 Sudeste 0 974.3 -1.1 93
2020-04-03 02:00:00 5.9 3 Nordeste 15 Norte 0 974.6 -0.8 89
2020-04-03 01:00:00 6.5 3 Norte 17 Nordeste 0 975.1 0.2 87
2020-04-03 00:00:00 8 6 Este 26 Este 0 975.4 1.1 81
2020-04-02 23:00:00 8.2 5 Nordeste 22 Norte 0 975.4 1.3 82
2020-04-02 22:00:00 8.6 4 Nordeste 13 Nordeste 0 974.9 1.1 82
2020-04-02 21:00:00 10.3 8 Norte 28 Norte 0 974.3 0.5 77
2020-04-02 20:00:00 11.9 14 Norte 32 Norte 0 974.1 0.2 73
2020-04-02 19:00:00 13.3 14 Norte 28 Norte 0 973.8 -0.4 69
2020-04-02 18:00:00 13.2 14 Norte 33 Norte 0 973.8 -0.6 70
2020-04-02 17:00:00 13.8 7 Nordeste 28 Norte 0 973.9 -0.7 68
2020-04-02 16:00:00 12.7 7 Nordeste 28 Norte 0 974.2 -0.5 75
2020-04-02 15:00:00 11.8 13 Norte 30 Norte 0 974.4 0 83
2020-04-02 14:00:00 12.7 11 Norte 26 Norte 0 974.6 0.7 78
2020-04-02 13:00:00 11.3 9 Norte 33 Norte 0 974.7 1.4 85
2020-04-02 12:00:00 11.2 13 Norte 30 Nordeste 0 974.4 1.7 85
2020-04-02 11:00:00 10.1 9 Norte 24 Norte 0 973.9 2 90
2020-04-02 10:00:00 8.9 11 Norte 32 Norte 0 973.3 1.7 95
2020-04-02 09:00:00 8.6 16 Norte 35 Norte 0 972.7 1.4 96
2020-04-02 08:00:00 8.4 13 Norte 32 Norte 0 971.9 0.6 96
2020-04-02 07:00:00 8.5 15 Norte 32 Nordeste 0 971.6 0.3 97
2020-04-02 06:00:00 8.6 10 Norte 24 Norte 0 971.3 -0.2 97
2020-04-02 05:00:00 8.7 11 Norte 26 Norte 0 971.3 -0.3 96
2020-04-02 04:00:00 8.8 10 Norte 24 Norte 0 971.3 -0.1 95
2020-04-02 03:00:00 8.8 9 Norte 22 Norte 0 971.5 0.2 94
2020-04-02 02:00:00 9 9 Norte 21 Norte 0 971.6 0.4 94
2020-04-02 01:00:00 9.1 8 Norte 24 Norte 0 971.4 0.7 95
2020-04-02 00:00:00 9.1 8 Norte 22 Norte 0 971.3 1.4 96
2020-04-01 23:00:00 9.5 5 Norte 17 Norte 0 971.2 1.6 98
2020-04-01 22:00:00 9.6 3 Norte 5 Norte 0 970.7 1.5 100
2020-04-01 21:00:00 9.6 4 Sudeste 15 Este 1.4 969.9 1.3 100
2020-04-01 20:00:00 10.9 5 Nordeste 15 Nordeste 0.1 969.6 1.4 89
2020-04-01 19:00:00 10.9 3 Norte 22 Norte 0.5 969.2 0.8 92
2020-04-01 18:00:00 12.4 12 Norte 33 Norte 0 968.6 0 71
2020-04-01 17:00:00 13.7 14 Norte 32 Norte 0 968.2 -0.8 67
2020-04-01 16:00:00 13.3 6 Norte 21 Norte 0 968.4 -0.8 66
2020-04-01 15:00:00 14.1 5 Norte 18 Noroeste 0 968.6 -0.6 59
2020-04-01 14:00:00 13.2 7 Norte 15 Norte 0 969 0 66
2020-04-01 13:00:00 11.4 6 Norte 15 Norte 0 969.2 0.5 73
2020-04-01 12:00:00 10.9 4 Nordeste 13 Norte 0 969.2 1.3 74
2020-04-01 11:00:00 8.8 3 Este 9 Norte 0 969 1.8 85
2020-04-01 10:00:00 5.7 0 Calma 5 Nordeste 0 968.7 1.9 96
2020-04-01 09:00:00 3.7 0 Calma 5 Oeste 0 967.9 1 100
2020-04-01 08:00:00 5.3 0 Calma 8 Sur 0 967.2 0.7 96
2020-04-01 07:00:00 5.4 0 Calma -- -- 0 966.8 0.8 98
2020-04-01 06:00:00 5.6 0 Calma 9 Sudeste 0 966.9 0.9 95
2020-04-01 05:00:00 5.6 3 Sudeste 9 Sudeste 0.2 966.5 1.1 97
2020-04-01 04:00:00 5.8 0 Calma 9 Nordeste 0 966 1.2 91
2020-04-01 03:00:00 5.4 4 Este 13 Sudeste 0 966 1.1 95
2020-04-01 02:00:00 5.3 3 Este 9 Norte 0 965.4 0.7 93
2020-04-01 01:00:00 5.7 3 Nordeste 15 Nordeste 0 964.8 0.3 92
2020-04-01 00:00:00 5.7 3 Nordeste 13 Norte 0 964.9 0.9 93
2020-03-31 23:00:00 5.7 4 Norte 13 Norte 0 964.7 0.9 94
2020-03-31 22:00:00 5.8 6 Norte 13 Nordeste 0.1 964.5 0.8 95
2020-03-31 21:00:00 6 5 Nordeste 22 Nordeste 0.4 964 0.3 94
2020-03-31 20:00:00 7.4 5 Nordeste 21 Nordeste 0 963.8 0 77
2020-03-31 19:00:00 7.5 8 Nordeste 22 Nordeste 0 963.7 -0.3 75
2020-03-31 18:00:00 7.9 7 Nordeste 18 Nordeste 0 963.7 -0.4 70
2020-03-31 17:00:00 8.1 7 Este 22 Nordeste 0 963.8 -0.5 63
2020-03-31 16:00:00 8.1 7 Este 21 Este 0 964 -0.5 59
2020-03-31 15:00:00 7.6 7 Este 24 Este 0 964.1 -0.6 56
2020-03-31 14:00:00 6.8 8 Este 24 Nordeste 0 964.3 -1 62
2020-03-31 13:00:00 6 9 Este 35 Nordeste 0 964.5 -1.3 61
2020-03-31 12:00:00 6.7 8 Este 30 Norte 0 964.7 -2 62
2020-03-31 11:00:00 4.9 7 Nordeste 24 Nordeste 0 965.3 -1.6 75
2020-03-31 10:00:00 2.4 8 Norte 24 Norte 0 965.8 -1.5 86
2020-03-31 09:00:00 1.5 10 Norte 24 Norte 0 966.7 -1.1 89
2020-03-31 08:00:00 1.6 9 Norte 22 Nordeste 0 966.9 -1.8 87
2020-03-31 07:00:00 1.8 9 Norte 24 Noroeste 0 967.3 -2 85
2020-03-31 06:00:00 1.9 5 Nordeste 18 Norte 0 967.8 -2.6 85
2020-03-31 05:00:00 2.5 6 Nordeste 26 Norte 0 968.7 -2.5 82
2020-03-31 04:00:00 2.7 7 Nordeste 35 Este 0 969.3 -2.7 82
2020-03-31 03:00:00 2.9 7 Nordeste -- -- -- 970.4 -2 78
2020-03-31 02:00:00 3 7 Nordeste 28 Este 0 971.2 -1.3 79
2020-03-31 01:00:00 3.3 8 Nordeste 30 Nordeste 0 972 -0.4 79
2020-03-31 00:00:00 3.2 10 Nordeste 35 Nordeste 0 972.4 0.4 77
2020-03-30 23:00:00 2.9 9 Nordeste 33 Nordeste 0 972.5 0.9 77
2020-03-30 22:00:00 3.8 9 Nordeste 35 Nordeste 0 972.4 0.9 65
2020-03-30 21:00:00 4.6 11 Nordeste 39 Norte 0 972 0.2 61
2020-03-30 20:00:00 5.9 11 Nordeste 42 Nordeste 0 971.6 -0.5 61
2020-03-30 19:00:00 7.6 15 Nordeste 48 Este 0 971.5 -1.2 49
2020-03-30 18:00:00 8.1 13 Nordeste 46 Norte 0 971.8 -2 51
2020-03-30 17:00:00 8.5 15 Nordeste 45 Nordeste 0 972.1 -2.2 51
2020-03-30 16:00:00 9 15 Este 48 Nordeste 0 972.7 -2 47
2020-03-30 15:00:00 8.3 17 Nordeste 45 Este 0 973.8 -1 56
2020-03-30 14:00:00 9 16 Este 55 Nordeste 0 974.3 -0.7 48
2020-03-30 13:00:00 8 15 Este 58 Nordeste 0 974.7 -0.3 55
2020-03-30 12:00:00 7.4 14 Nordeste 54 Este 0 974.8 -0.1 59
2020-03-30 11:00:00 6.8 14 Nordeste 42 Este 0 975 0.3 60
2020-03-30 10:00:00 5.8 11 Nordeste 37 Nordeste 0 975 0.4 67
2020-03-30 09:00:00 4.9 7 Nordeste 35 Nordeste 0 974.9 0.1 73
2020-03-30 08:00:00 4.8 10 Nordeste 35 Nordeste 0 974.7 -0.6 70
2020-03-30 07:00:00 5.2 8 Este 33 Este 0 974.6 -0.9 62
2020-03-30 06:00:00 5.5 9 Este 39 Este 0 974.8 -1.1 71
2020-03-30 05:00:00 5.9 7 Este 35 Norte 0 975.3 -1 75
2020-03-30 04:00:00 6.1 9 Nordeste 30 Nordeste 0 975.5 -1.2 77
2020-03-30 03:00:00 6.4 8 Este -- -- -- 975.9 -0.7 78
2020-03-30 02:00:00 7.1 7 Nordeste 32 Nordeste 0 976.3 -0.1 77
2020-03-30 01:00:00 7.6 9 Este 35 Este 0 976.7 0.6 79
2020-03-30 00:00:00 8.3 8 Este 24 Norte 0 976.6 0.8 80
2020-03-29 23:00:00 8.3 6 Nordeste 24 Este 0 976.4 1 81
2020-03-29 22:00:00 9.1 4 Nordeste 24 Este 0 976.1 1.2 72
2020-03-29 21:00:00 10.1 5 Este 26 Norte 0 975.8 1.2 68
2020-03-29 20:00:00 12.2 7 Nordeste 28 Nordeste 0 975.4 0.8 58
2020-03-29 19:00:00 14.3 10 Nordeste 30 Nordeste 0 974.9 -0.2 57
2020-03-29 18:00:00 15.3 8 Nordeste 24 Norte 0 974.6 -1 55
2020-03-29 17:00:00 17.2 9 Nordeste 24 Norte 0 974.6 -1.5 48
2020-03-29 16:00:00 17.7 10 Norte 24 Norte 0 975.1 -1.6 49
2020-03-29 15:00:00 16.8 10 Norte 24 Norte 0 975.6 -1.3 51
2020-03-29 14:00:00 15.8 6 Nordeste 21 Este 0 976.1 -0.8 55
2020-03-29 13:00:00 13.7 6 Nordeste 21 Sudeste 0 976.7 0 62
2020-03-29 12:00:00 11.8 6 Este 21 Este 0 976.9 0.3 69
2020-03-29 11:00:00 9.2 6 Este 15 Este 0 976.9 0.6 79
2020-03-29 10:00:00 6.8 3 Nordeste 9 Nordeste 0 976.7 0.6 88
2020-03-29 09:00:00 5.2 2 Norte 11 Este 0 976.6 0.5 93
2020-03-29 08:00:00 5.2 3 Nordeste 13 Nordeste 0 976.3 0.1 93
2020-03-29 07:00:00 5.2 3 Nordeste 9 Norte 0 976.1 -0.5 93
2020-03-29 06:00:00 5.2 2 Este 8 Nordeste 0 976.1 -0.8 94
2020-03-29 05:00:00 5.9 3 Sudeste 13 Este 0 976.2 -0.7 93
2020-03-29 03:00:00 5.5 0 Calma -- -- -- 976.9 0.1 87
2020-03-29 01:00:00 6.6 0 Calma 8 Norte 0 976.9 0.1 80
2020-03-29 00:00:00 7.3 0 Calma 9 Noroeste 0 977 0.7 74
2020-03-28 23:00:00 8.8 3 Este 13 Nordeste 0 976.8 1.4 70
2020-03-28 22:00:00 10.1 4 Norte 18 Norte 0 976.8 2.1 67
2020-03-28 21:00:00 11.2 11 Norte 21 Noroeste 0 976.3 2.2 62
2020-03-28 20:00:00 12.4 16 Noroeste 30 Norte 0 975.4 1.6 54
2020-03-28 19:00:00 14.6 19 Norte 32 Norte 0 974.7 0.7 47
2020-03-28 18:00:00 16.1 22 Norte 32 Norte 0 974.1 -0.4 48
2020-03-28 17:00:00 17.8 8 Norte 18 Norte 0 973.8 -1.2 36
2020-03-28 16:00:00 17.8 5 Este 21 Sudeste 0 974 -1.3 33
2020-03-28 15:00:00 17.2 9 Sudoeste 26 Sudeste 0 974.5 -1.1 38
2020-03-28 14:00:00 15.9 9 Sudoeste 21 Sudoeste 0 975 -0.5 41
2020-03-28 13:00:00 15.1 5 Sur 15 Sur 0 975.3 0.3 42
2020-03-28 12:00:00 13.8 5 Sur 17 Sudeste 0 975.6 1.3 46
2020-03-28 11:00:00 12.2 7 Sudeste 17 Sur 0 975.5 1.8 53
2020-03-28 10:00:00 9 3 Este 8 Sudeste 0 975 1.9 67
2020-03-28 09:00:00 8 0 Calma 5 Sudeste 0 974.3 1.7 63
2020-03-28 08:00:00 5.9 0 Calma 8 Este 0 973.7 1.4 69
2020-03-28 07:00:00 4.8 2 Sudeste 8 Sudeste 0 973.1 0.9 77
2020-03-28 06:00:00 4.9 0 Calma 5 Este 0 972.6 0.3 80
2020-03-28 05:00:00 4.6 0 Calma 9 Sudeste 0 972.3 0.1 87
2020-03-28 04:00:00 4.8 4 Este 11 Sudeste 0 972.2 0.1 88
2020-03-28 03:00:00 5.5 3 Este 9 Sudeste 0 972.3 0.3 85
2020-03-28 02:00:00 5.5 3 Sudeste -- -- -- 972.2 0.5 85
2020-03-28 01:00:00 5.9 4 Sudeste 13 Sudeste 0 972.1 1 84
2020-03-28 00:00:00 6.5 5 Sudeste 15 Este 0 972 1.7 80
2020-03-27 23:00:00 7.6 4 Este 13 Norte 0 971.7 2.6 73
2020-03-27 22:00:00 8.1 3 Este 13 Sur 0 971.1 3 72
2020-03-27 21:00:00 9.6 3 Nordeste 21 Norte 0 970.3 2.6 68
2020-03-27 20:00:00 11.3 15 Noroeste 30 Norte 0 969.1 1.5 63
2020-03-27 19:00:00 14.5 9 Oeste 17 Sudoeste 0 968.1 0.2 45
2020-03-27 18:00:00 15.5 6 Sudeste 18 Sudeste 0 967.7 -0.6 38
2020-03-27 17:00:00 15.9 6 Sudeste 26 Sur 0 967.6 -1.3 34
2020-03-27 16:00:00 15.5 6 Sudeste 28 Sudeste 0 967.9 -1.5 35
2020-03-27 15:00:00 14.3 7 Este 21 Sudeste 0 968.3 -1.6 39
2020-03-27 14:00:00 13.2 9 Sudeste 26 Este 0 968.9 -1.1 41
2020-03-27 13:00:00 12.5 11 Este 26 Nordeste 0 969.4 -0.4 44
2020-03-27 12:00:00 10.6 11 Este 26 Este 0 969.9 0.4 52
2020-03-27 11:00:00 8.8 9 Este 26 Este 0 970 0.6 62
2020-03-27 10:00:00 6.3 6 Este 21 Este 0 969.8 0.9 70
2020-03-27 09:00:00 4.4 2 Este 9 Nordeste 0 969.5 0.6 77
2020-03-27 08:00:00 2.4 0 Calma 4 Norte 0 969.4 0.5 86
2020-03-27 07:00:00 1.4 3 Noroeste 5 Noroeste 0 968.9 -0.1 90
2020-03-27 06:00:00 2.8 0 Calma 9 Nordeste 0 968.9 -0.3 87
2020-03-27 05:00:00 3.5 3 Norte 15 Norte 0 968.9 -0.6 87
2020-03-27 04:00:00 4.3 4 Norte 18 Norte 0 969 -0.8 87
2020-03-27 03:00:00 4.5 5 Norte 18 Norte 0 969.2 -0.8 87
2020-03-27 02:00:00 4.7 3 Nordeste -- -- -- 969.5 -0.8 86
2020-03-27 01:00:00 4.3 0 Calma 11 Este 0 969.8 -0.6 86
2020-03-27 00:00:00 5.1 4 Nordeste 17 Nordeste 0 970 -0.2 81
2020-03-26 23:00:00 5.8 7 Norte 26 Norte 0 970.3 0.6 76
2020-03-26 22:00:00 6.5 7 Norte 24 Norte 0 970.4 0.9 74
2020-03-26 21:00:00 8 4 Nordeste 22 Norte 0 970.2 1 72
2020-03-26 20:00:00 9.7 14 Norte 30 Norte 0 969.7 0.4 68
2020-03-26 19:00:00 11.7 18 Norte 30 Norte 0 969.5 0 64
2020-03-26 18:00:00 13.8 14 Norte 26 Norte 0 969.2 -1 56
2020-03-26 17:00:00 14.8 10 Norte 26 Norte 0 969.3 -1.6 52
2020-03-26 16:00:00 15.1 14 Norte 33 Norte 0 969.5 -1.9 53
2020-03-26 15:00:00 14.5 15 Norte 35 Norte 0 970.2 -1.6 49
2020-03-26 14:00:00 14.2 11 Norte 26 Norte 0 970.9 -1.2 54
2020-03-26 13:00:00 13.8 10 Norte 24 Norte 0 971.4 -1 59
2020-03-26 12:00:00 11.8 6 Nordeste 18 Norte 0 971.8 -0.6 64
2020-03-26 11:00:00 9.3 6 Nordeste 15 Este 0 972.1 -0.4 74
2020-03-26 10:00:00 6.7 4 Nordeste 13 Este 0 972.4 0.1 87
2020-03-26 09:00:00 4.7 4 Este 9 Este 0 972.4 0.3 95
2020-03-26 08:00:00 4.6 0 Calma 8 Este 0 972.5 0.4 99
2020-03-26 07:00:00 5.3 0 Calma 13 Norte 0 972.3 -0.1 97
2020-03-26 06:00:00 6.1 4 Norte 13 Norte 0 972.1 -0.5 97
2020-03-26 05:00:00 6.2 5 Norte 13 Norte 0 972.1 -1 98
2020-03-26 04:00:00 6.5 9 Norte 15 Norte 0 972.4 -0.9 99
2020-03-26 03:00:00 7.2 8 Norte 15 Nordeste 0 972.6 -0.8 97
2020-03-26 02:00:00 7.4 5 Norte -- -- -- 973.1 -0.4 97
2020-03-26 01:00:00 8.3 9 Norte 15 Norte 0 973.3 -0.3 96
2020-03-26 00:00:00 8.8 6 Norte 17 Norte 0 973.4 -0.1 100
2020-03-25 23:00:00 8.6 3 Nordeste 11 Nordeste 0 973.5 0.3 97
2020-03-25 22:00:00 9.5 3 Norte 15 Norte 0 973.6 0.8 96
2020-03-25 21:00:00 10 12 Norte 18 Norte 0 973.5 1 93
2020-03-25 20:00:00 12.4 9 Norte 28 Norte 0 973.2 0.9 84
2020-03-25 19:00:00 15.3 19 Norte 30 Norte 0 972.8 0.3 65
2020-03-25 18:00:00 17.2 18 Norte 32 Norte 0 972.5 0 58
2020-03-25 17:00:00 18.5 20 Norte 32 Norte 0 972.3 -0.7 52
2020-03-25 16:00:00 19 21 Norte 33 Noroeste 0 972.5 -1 52
2020-03-25 15:00:00 19.1 15 Norte 26 Norte 0 972.5 -1.1 50
2020-03-25 14:00:00 19.2 9 Noroeste 26 Noroeste 0 973 -0.6 50
2020-03-25 13:00:00 18.4 10 Noroeste 21 Norte 0 973.5 -0.1 48
2020-03-25 12:00:00 17.1 10 Noroeste 17 Noroeste 0 973.6 0.2 56
2020-03-25 11:00:00 15.3 3 Noroeste 8 Noroeste 0 973.6 0.4 70
2020-03-25 10:00:00 12.7 4 Sur 9 Sur 0 973.6 0.7 79
2020-03-25 09:00:00 10.7 4 Sudeste 8 Sur 0 973.4 0.6 85
2020-03-25 08:00:00 8.3 4 Sudeste 9 Sudeste 0 973.2 0.6 94
2020-03-25 07:00:00 8.5 3 Sudeste -- -- 0 972.9 0.2 94
2020-03-25 06:00:00 8.7 5 Sudeste 8 Sudeste 0 972.8 -0.2 95
2020-03-25 05:00:00 8.5 4 Sudeste 5 Sur 0 972.6 -0.5 97
2020-03-25 04:00:00 9.1 4 Sur -- -- 0 972.7 -0.5 92
2020-03-25 03:00:00 10.1 -- -- -- -- 0 973 -0.1 85
2020-03-25 02:00:00 9.2 5 Oeste -- -- -- 973.1 -0.1 88
2020-03-25 01:00:00 9.3 5 Oeste -- -- 0 973.2 0.4 86
2020-03-25 00:00:00 -- -- -- -- -- 0 973.1 0.5 --
2020-03-24 23:00:00 12.8 0 Calma 8 Nordeste 0 973.2 0.9 74
2020-03-24 22:00:00 13.4 2 Nordeste 18 Norte 0 972.8 1 72
2020-03-24 21:00:00 13.8 13 Noroeste 21 Norte 0 972.6 1.1 70
2020-03-24 20:00:00 14.5 12 Noroeste 18 Norte 0 972.3 0.8 71
2020-03-24 19:00:00 18 9 Norte 18 Norte 0 971.8 -0.1 59
2020-03-24 18:00:00 19.8 4 Nordeste 18 Norte 0 971.5 -0.9 45
2020-03-24 17:00:00 20.1 8 Norte 17 Norte 0 971.5 -1.4 43
2020-03-24 16:00:00 19.8 7 Norte 21 Norte 0 971.9 -1.5 45
2020-03-24 15:00:00 18.7 0 Calma 11 Norte 0 972.4 -1.3 48
2020-03-24 14:00:00 19.3 4 Sudeste 15 Sudeste 0 972.9 -0.9 48
2020-03-24 13:00:00 18.1 7 Sudeste 18 Sur 0 973.4 -0.3 55
2020-03-24 12:00:00 16.8 8 Sudeste 17 Sudeste 0 973.7 0.2 60
2020-03-24 11:00:00 15.1 5 Sudeste 15 Sudeste 0 973.8 0.5 69
2020-03-24 10:00:00 11.7 8 Sudeste 18 Sudeste 0 973.7 1 78
2020-03-24 09:00:00 8 6 Este 13 Sudeste 0 973.5 1 99
2020-03-24 08:00:00 6.3 7 Sudeste 15 Sudeste 0 973.3 0.7 100
2020-03-24 07:00:00 6.1 4 Este 11 Este 0 972.7 -0.1 100
2020-03-24 06:00:00 6.5 3 Este 8 Este 0 972.5 -0.7 100
2020-03-24 05:00:00 7.1 0 Calma 9 Este 0 972.6 -1 99
2020-03-24 04:00:00 7.1 2 Norte 5 Nordeste 0 972.8 -1 100
2020-03-24 03:00:00 7.8 2 Nordeste 13 Norte 0 973.2 -0.7 97
2020-03-24 02:00:00 8.1 4 Norte 11 Nordeste 0 973.6 -0.2 96
2020-03-24 01:00:00 8.1 5 Norte 17 Norte 0 973.8 0 95
2020-03-24 00:00:00 8.2 6 Norte 18 Norte 0 973.9 0.2 95
2020-03-23 23:00:00 8.4 7 Norte 22 Norte 0 973.8 0.5 93
2020-03-23 22:00:00 8.8 5 Norte 17 Norte 0 973.8 0.9 91
2020-03-23 21:00:00 8.7 8 Norte 22 Norte 0 973.7 1.2 92
2020-03-23 20:00:00 9.1 12 Norte 32 Norte 0 973.3 0.6 91
2020-03-23 19:00:00 10.4 16 Norte 33 Norte 0 972.9 0.1 86
2020-03-23 18:00:00 12 15 Norte 35 Norte 0 972.5 -0.5 81
2020-03-23 17:00:00 12.3 19 Norte 33 Norte 0 972.7 -1.1 81
2020-03-23 16:00:00 14.7 15 Norte 35 Norte 0 972.8 -1.4 72
2020-03-23 15:00:00 14.7 13 Norte 26 Norte 0 973 -1.3 73
2020-03-23 14:00:00 14 11 Norte 26 Norte 0 973.8 -1 76
2020-03-23 13:00:00 13.8 13 Norte 24 Norte 0 974.2 -0.7 77
2020-03-23 12:00:00 13.8 7 Este 21 Sudeste 0 974.3 0.2 73
2020-03-23 11:00:00 10.8 8 Norte 18 Este 0 974.8 1 88
2020-03-23 10:00:00 10.3 6 Norte 21 Norte 0 974.9 1.6 91
2020-03-23 09:00:00 9.3 5 Nordeste 15 Norte 0 974.1 1 96
2020-03-23 08:00:00 8.9 5 Norte 13 Norte 0 973.8 1.1 97
2020-03-23 07:00:00 8.7 4 Norte 18 Nordeste 0 973.3 0.9 97
2020-03-23 06:00:00 8.8 7 Norte 18 Norte 0 973.1 0.6 95
2020-03-23 05:00:00 8.2 5 Norte 17 Norte 0 972.7 0.2 97
2020-03-23 04:00:00 8.5 5 Norte 13 Este 0 972.4 -0.5 94
2020-03-23 03:00:00 9.2 3 Nordeste 15 Norte 0 972.5 -0.7 91
2020-03-23 02:00:00 9.4 3 Nordeste 13 Norte 0 972.5 -0.7 91
2020-03-23 01:00:00 9.7 7 Norte 18 Norte 0 972.9 0.2 89
2020-03-23 00:00:00 9.6 4 Norte 18 Norte 0 973.2 1.1 86
2020-03-22 23:00:00 9.8 5 Nordeste 15 Norte 0 973.2 1.9 86
2020-03-22 22:00:00 10.1 4 Este 18 Sudeste 0 972.7 1.9 85
2020-03-22 21:00:00 10.8 8 Norte 24 Norte 0 972.1 1.6 91
2020-03-22 20:00:00 11.8 11 Norte 22 Norte 0 971.3 1.1 90
2020-03-22 19:00:00 12.6 14 Norte 32 Norte 0 970.8 0.7 88
2020-03-22 18:00:00 13.6 15 Norte 26 Norte 0 970.5 0.1 84
2020-03-22 17:00:00 15.2 14 Norte 24 Norte 0 970.2 -0.6 78
2020-03-22 16:00:00 15.3 12 Norte 28 Norte 0 970.1 -1 76
2020-03-22 15:00:00 15.3 6 Norte 21 Norte 0 970.4 -0.9 76
2020-03-22 14:00:00 14.2 9 Norte 21 Norte 0 970.8 -0.6 77
2020-03-22 13:00:00 12.7 5 Norte 17 Norte 0 971.1 0 82
2020-03-22 12:00:00 10.6 6 Norte 17 Norte 0 971.3 0.6 87
2020-03-22 11:00:00 9.9 5 Nordeste 15 Norte 0 971.4 1.1 90
2020-03-22 10:00:00 9.1 3 Nordeste 13 Este 0 971.1 1.4 96
2020-03-22 09:00:00 8.9 2 Norte 18 Norte 0 970.7 1.2 98
2020-03-22 08:00:00 8.7 3 Este 11 Nordeste 0 970.3 1 100
2020-03-22 07:00:00 8.7 4 Norte 15 Nordeste 0 969.7 0.5 100
2020-03-22 06:00:00 8.8 7 Norte 21 Norte 0 969.5 0.2 98
2020-03-22 05:00:00 9 7 Norte 21 Norte 0 969.3 0.1 98
2020-03-22 04:00:00 9.1 6 Norte 17 Norte 0 969.2 -0.3 100
2020-03-22 03:00:00 9.2 5 Norte 17 Norte 0 969.3 -0.1 99
2020-03-22 02:00:00 9.2 8 Norte 22 Norte 0 969.2 0.3 100
2020-03-22 01:00:00 9.2 8 Norte 21 Norte 0 969.5 0.7 100
2020-03-22 00:00:00 9.2 8 Norte 15 Norte 0 969.4 0.3 100
2020-03-21 23:00:00 9.5 12 Norte 21 Norte 0.2 968.9 0.5 100
2020-03-21 22:00:00 10.1 17 Norte 24 Norte 2.6 968.8 1.3 100
2020-03-21 21:00:00 10.5 2 Norte 15 Norte 4.5 969.1 2.3 100
2020-03-21 20:00:00 10.8 9 Norte 18 Noroeste 1.6 968.4 2 100
2020-03-21 19:00:00 11.2 12 Noroeste 26 Noroeste 6.5 967.5 0.8 100
2020-03-21 18:00:00 13.5 10 Oeste 21 Oeste 0 966.8 0 84
2020-03-21 17:00:00 14.6 15 Sudoeste 26 Oeste 0 966.4 -0.8 79
2020-03-21 16:00:00 14.9 9 Sudoeste 17 Oeste 0 966.7 -0.7 78
2020-03-21 15:00:00 15.3 3 Noroeste 13 Noroeste 0 966.8 -0.6 77
2020-03-21 14:00:00 15.7 7 Sudoeste 15 Sur 0 967.2 -0.2 73
2020-03-21 13:00:00 14.8 5 Sudoeste 17 Sudoeste 0 967.4 0 80
2020-03-21 12:00:00 14 8 Sur 13 Sudeste 0 967.4 0.1 83
2020-03-21 11:00:00 10.8 3 Norte 13 Nordeste 0 967.4 0.4 100
2020-03-21 10:00:00 9.9 4 Norte 15 Norte 0 967.4 0.7 100
2020-03-21 09:00:00 9.3 8 Norte 13 Norte 0 967.3 0.6 100
2020-03-21 08:00:00 9 6 Noroeste 9 Noroeste 0 967 0.4 100
2020-03-21 07:00:00 9.1 6 Norte 8 Norte 0 966.7 -0.5 100
2020-03-21 06:00:00 9.4 0 Calma 11 Norte 0 966.7 -1.4 100
2020-03-21 05:00:00 9.3 6 Norte 11 Norte 0.1 966.6 -1.8 100
2020-03-21 04:00:00 9.7 9 Noroeste 11 Noroeste 0.2 967.2 -1.5 100
2020-03-21 03:00:00 9.7 4 Norte 9 Norte 0 968.1 -1 100
2020-03-21 02:00:00 9.4 5 Norte 15 Norte 0 968.4 -1 100
2020-03-21 01:00:00 9.7 5 Norte 15 Norte 0 968.7 -0.8 100
2020-03-21 00:00:00 9.9 9 Noroeste 11 Noroeste 0 969.1 -0.3 100
2020-03-20 23:00:00 10.6 5 Norte 8 Norte 0 969.4 0.1 100
2020-03-20 22:00:00 10.7 2 Norte 13 Norte 0 969.5 0.2 100
2020-03-20 21:00:00 11.1 10 Norte 15 Noroeste 0 969.4 0.2 98
2020-03-20 20:00:00 11.2 6 Norte 9 Norte 0 969.3 0 100
2020-03-20 19:00:00 11.4 0 Calma 8 Sudeste 0.2 969.3 0 100
2020-03-20 18:00:00 11.8 0 Calma 5 Sur 0.5 969.2 -0.2 99
2020-03-20 17:00:00 11.6 5 Sudoeste 15 Sudoeste 2.6 969.3 -0.4 96
2020-03-20 16:00:00 12.3 9 Sudoeste 17 Sudoeste 0.7 969.3 -0.7 95
2020-03-20 15:00:00 13.4 8 Sudoeste 13 Sudoeste 0.1 969.4 -0.8 91
2020-03-20 14:00:00 13.4 8 Sudoeste 17 Sudoeste 0 969.7 -0.6 90
2020-03-20 13:00:00 13.9 6 Sur 15 Este 0 970 -0.3 87
2020-03-20 12:00:00 12.8 5 Sudeste 13 Sudeste 0 970.2 -0.1 94
2020-03-20 11:00:00 11.6 2 Este 8 Nordeste 0 970.3 0.2 100
2020-03-20 10:00:00 10.8 2 Nordeste 8 Norte 0.1 970.3 0.4 100
2020-03-20 09:00:00 10.6 2 Este 5 Sudeste 0.9 970.3 0.6 100
2020-03-20 08:00:00 10.6 3 Sudeste 11 Sudeste 1.1 970.1 0.5 100
2020-03-20 07:00:00 10.8 7 Sudeste 13 Sudeste 0.7 969.9 0.1 100
2020-03-20 06:00:00 10.8 7 Sudeste 13 Sudeste 0.5 969.7 -0.6 100
2020-03-20 05:00:00 10.8 7 Sudeste 15 Sudeste 0.1 969.6 -1.3 100
2020-03-20 04:00:00 10.8 5 Sudeste 13 Sudeste 0 969.8 -1.5 100
2020-03-20 03:00:00 10.9 3 Este 13 Nordeste 0.8 970.3 -1.3 100
2020-03-20 02:00:00 11.1 6 Este 13 Sudeste 0 970.9 -1.3 100
2020-03-20 01:00:00 11.2 3 Este 18 Sudeste 0.7 971.3 -0.9 100
2020-03-20 00:00:00 10.9 5 Sudeste 15 Sudeste 0.6 971.6 -1.1 100
2020-03-19 23:00:00 10.3 3 Sudeste 11 Norte 0 972.2 -0.3 99
2020-03-19 22:00:00 10.4 10 Norte 13 Norte 0 972.2 0.2 99
2020-03-19 21:00:00 10.6 6 Norte 18 Norte 0 972.7 0.9 99
2020-03-19 20:00:00 11.3 13 Norte 21 Norte 0 972.5 0.5 96
2020-03-19 19:00:00 12.9 14 Norte 18 Norte 0 972 -0.6 92
2020-03-19 18:00:00 16.4 13 Noroeste 18 Norte 0 971.8 -1.4 74
2020-03-19 17:00:00 17.8 11 Oeste 22 Sudoeste 0 972 -2.1 66
2020-03-19 16:00:00 19 14 Oeste 24 Oeste 0 972.6 -2.2 62
2020-03-19 15:00:00 19.2 15 Oeste 24 Oeste 0 973.2 -2.2 60
2020-03-19 14:00:00 18.8 16 Sudoeste 28 Sur 0 974.1 -1.5 59
2020-03-19 13:00:00 17.9 14 Oeste 26 Oeste 0 974.8 -0.7 65
2020-03-19 12:00:00 17.2 9 Sudoeste 18 Sur 0 975.4 -0.1 69
2020-03-19 11:00:00 14.3 5 Sur 11 Sur 0 975.6 0.1 76
2020-03-19 10:00:00 11.8 7 Sur 11 Sudeste 0 975.5 -0.1 92
2020-03-19 09:00:00 -- 5 Oeste 13 Oeste 0 975.5 -0.1 --
2020-03-19 08:00:00 5.9 9 Oeste 15 Noroeste 0 975.5 -0.3 100
2020-03-19 07:00:00 6.5 13 Oeste 15 Oeste 0 975.6 -0.6 100
2020-03-19 06:00:00 7.2 2 Noroeste 15 Oeste 0 975.6 -1.4 100
2020-03-19 05:00:00 7.3 13 Oeste 15 Oeste 0 975.8 -1.8 100
2020-03-19 04:00:00 7.9 9 Oeste 13 Oeste 0 976.2 -1.9 98
2020-03-19 03:00:00 8.2 8 Noroeste 15 Oeste 0 977 -1.6 97
2020-03-19 02:00:00 9.9 5 Noroeste 9 Noroeste 0 977.6 -1.3 90
2020-03-19 01:00:00 10 3 Norte 11 Oeste 0 978.1 -1 89
2020-03-19 00:00:00 10.2 8 Noroeste 15 Noroeste 0 978.6 -0.4 88
2020-03-18 23:00:00 10.7 9 Noroeste 17 Norte 0 978.9 0.5 86
2020-03-18 22:00:00 11.9 12 Noroeste 18 Noroeste 0 979.1 0.9 79
2020-03-18 21:00:00 13.8 16 Norte 21 Norte 0 979 1 71
2020-03-18 20:00:00 15.6 11 Norte 18 Norte 0 978.4 0.2 69
2020-03-18 19:00:00 17.7 6 Norte 18 Norte 0 978.2 -0.6 61
2020-03-18 18:00:00 20.2 7 Norte 18 Nordeste 0 978 -1.4 55
2020-03-18 17:00:00 21.7 8 Norte 17 Norte 0 978.2 -2 51
2020-03-18 16:00:00 21.7 6 Norte 18 Norte 0 978.8 -2.2 46
2020-03-18 15:00:00 21.2 6 Nordeste 18 Norte 0 979.4 -2.4 46
2020-03-18 14:00:00 20.7 7 Norte 13 Nordeste 0 980.2 -1.9 49
2020-03-18 13:00:00 19.2 5 Sudeste 13 Sudeste 0 981 -1.2 58
2020-03-18 12:00:00 17.6 7 Sudeste 15 Sudeste 0 981.8 -0.2 61
2020-03-18 11:00:00 15.9 4 Sudeste 11 Sudeste 0 982.1 0 69
2020-03-18 10:00:00 13.2 5 Sudeste 11 Sudeste 0 982.2 0.3 77
2020-03-18 09:00:00 11.1 4 Sudeste 13 Sudeste 0 982 0.2 79
2020-03-18 08:00:00 9.3 3 Sudeste 13 Sudeste 0 982.1 0.3 85
2020-03-18 07:00:00 9.2 5 Sudeste 9 Sudeste 0 981.9 -0.1 86
2020-03-18 06:00:00 9.2 4 Sudeste 9 Sudeste 0 981.8 -0.5 85
2020-03-18 05:00:00 8.9 4 Sudeste 9 Sudeste 0 981.8 -0.7 88
2020-03-18 04:00:00 9.1 3 Este 5 Este 0 982 -0.8 88
2020-03-18 03:00:00 8.5 0 Calma 5 Este 0 982.3 -0.8 91
2020-03-18 02:00:00 8.6 0 Calma 5 Este 0 982.5 -0.9 90
2020-03-18 01:00:00 8.8 2 Este 11 Sur 0 982.8 -0.4 92
2020-03-18 00:00:00 8.7 6 Este 13 Sudeste 0 983.1 0.4 92
2020-03-17 23:00:00 9.2 5 Este 18 Este 0 983.4 1.2 90
2020-03-17 22:00:00 9.9 5 Sudeste 17 Este 0 983.2 1.6 88
2020-03-17 21:00:00 11.2 4 Sudeste 11 Nordeste 0 982.7 1.4 82
2020-03-17 20:00:00 13.4 3 Norte 15 Este 0 982.2 1 74
2020-03-17 19:00:00 15.8 5 Este 17 Este 0 981.6 0.3 67
2020-03-17 18:00:00 17.3 6 Nordeste 24 Norte 0 981.3 -0.3 63
2020-03-17 17:00:00 17.7 13 Norte 26 Norte 0 981.2 -1 64
2020-03-17 16:00:00 17.4 15 Norte 30 Norte 0 981.3 -1.4 63
2020-03-17 15:00:00 16.5 14 Norte 28 Norte 0 981.6 -1.4 64
2020-03-17 14:00:00 15.9 10 Norte 26 Nordeste 0 982.2 -0.7 63
2020-03-17 13:00:00 14.6 8 Nordeste 22 Norte 0 982.7 0 63
2020-03-17 12:00:00 12.8 10 Norte 24 Norte 0 983 0.2 67
2020-03-17 11:00:00 10.5 5 Nordeste 15 Norte 0 982.9 0.5 72
2020-03-17 10:00:00 8.2 5 Nordeste 18 Nordeste 0 982.7 0.5 78
2020-03-17 09:00:00 5.4 3 Este 17 Norte 0 982.8 1 88
2020-03-17 08:00:00 4.9 6 Norte 22 Nordeste 0 982.4 1.1 88
2020-03-17 07:00:00 5.2 9 Norte 28 Norte 0 982.2 0.7 86
2020-03-17 06:00:00 5 11 Norte 21 Norte 0 981.8 0 86
2020-03-17 05:00:00 5.1 9 Norte 21 Norte 0 981.3 -0.5 86
2020-03-17 04:00:00 5.1 6 Norte 21 Norte 0 981.5 -0.4 86
2020-03-17 03:00:00 5.5 9 Norte 30 Norte 0 981.8 -0.5 87
2020-03-17 02:00:00 5.6 10 Norte 28 Norte 0 981.8 -0.4 90
2020-03-17 01:00:00 5.8 13 Norte 30 Norte 0 981.9 -0.3 88
2020-03-17 00:00:00 6.2 10 Norte 28 Nordeste 0 982.3 0.5 87
2020-03-16 23:00:00 5.7 18 Norte 32 Norte 0 982.2 0.9 89
2020-03-16 22:00:00 5.9 9 Norte 26 Norte 0 982.2 1.6 88
2020-03-16 21:00:00 6.8 11 Norte 32 Norte 0 981.8 1.8 85
2020-03-16 20:00:00 7.2 11 Norte 28 Norte 0 981.3 1.2 84
2020-03-16 19:00:00 8.3 15 Norte 33 Norte 0 980.6 0.8 75
2020-03-16 18:00:00 8.7 18 Norte 39 Noroeste 0 980 0.2 77
2020-03-16 17:00:00 9.3 21 Norte 48 Norte 0 980.1 0.1 71
2020-03-16 16:00:00 9 17 Norte 41 Norte 0 979.8 -0.2 73
2020-03-16 15:00:00 10.5 17 Norte 41 Norte 0 979.8 -0.1 65
2020-03-16 14:00:00 9.6 20 Norte 42 Norte 0 980 0.2 73
2020-03-16 13:00:00 9.6 21 Norte 42 Norte 0 980 0.8 76
2020-03-16 12:00:00 8.9 13 Nordeste 42 Norte 0 979.9 1.6 80
2020-03-16 11:00:00 6.5 16 Norte 35 Norte 0.5 979.8 2.1 90
2020-03-16 10:00:00 5.8 17 Norte 37 Norte 0.2 979.2 2.1 92
2020-03-16 09:00:00 4.9 13 Norte 18 Norte 0 978.3 1.7 94
2020-03-16 08:00:00 3.7 9 Norte 32 Norte 0 977.7 1.6 98
2020-03-16 07:00:00 4 13 Norte 21 Norte 0.1 977.1 1.2 98
2020-03-16 06:00:00 4.1 14 Norte 24 Norte 0 976.6 0.6 97
2020-03-16 05:00:00 4.3 12 Norte 21 Norte 0.5 976.1 0.6 96
2020-03-16 04:00:00 3.8 12 Norte 21 Norte 0 975.9 0.7 95
2020-03-16 03:00:00 4.1 10 Norte 21 Norte 0.4 976 1.1 96
2020-03-16 02:00:00 3.4 13 Noroeste 24 Noroeste 0 975.5 0.8 97
2020-03-16 01:00:00 4.3 17 Noroeste 26 Noroeste 0.2 975.2 0.8 95
2020-03-16 00:00:00 3.3 0 Calma 15 Noroeste 0.1 974.9 1.1 99
2020-03-15 23:00:00 4.1 13 Noroeste 18 Norte 0 974.7 1.4 95
2020-03-15 22:00:00 3.9 12 Noroeste 22 Norte 0 974.4 1.4 94
2020-03-15 21:00:00 4.6 15 Norte 33 Noroeste 0.1 973.8 0.9 90
2020-03-15 20:00:00 4.5 9 Noroeste 30 Noroeste 0.8 973.3 0.6 93
2020-03-15 19:00:00 5.8 8 Norte 17 Noroeste 0 973 0.5 88
2020-03-15 18:00:00 4.2 11 Noroeste 59 Norte 1 972.9 0.5 91
2020-03-15 17:00:00 6.2 18 Oeste 30 Oeste 0 972.7 0.1 84
2020-03-15 16:00:00 5.2 9 Norte 22 Noroeste 1 972.5 0.2 95
2020-03-15 15:00:00 6 9 Norte 37 Norte 0.8 972.4 0.7 92
2020-03-15 14:00:00 6.5 18 Noroeste 28 Norte 1.5 972.6 1.5 96
2020-03-15 13:00:00 6.6 19 Noroeste 46 Norte 1.2 972.3 0.8 97
2020-03-15 12:00:00 7.3 30 Norte 46 Norte 2.4 971.7 -0.4 98
2020-03-15 11:00:00 9.5 17 Sur -- -- -- 971.1 -1.1 97
2020-03-15 10:00:00 7.7 14 Sur 18 Sur 0 971.5 -0.9 100
2020-03-15 09:00:00 6 9 Sur 11 Sudoeste 0 972.1 -0.4 100
2020-03-15 08:00:00 4.7 8 Sur 15 Sur 0 972.2 -0.5 100
2020-03-15 07:00:00 4.5 12 Sur 15 Sur 0 972.4 -0.3 100
2020-03-15 06:00:00 4.5 6 Sur 11 Noroeste 0 972.5 -0.7 100
2020-03-15 05:00:00 3.5 0 Calma 11 Oeste 0 972.7 -0.9 100
2020-03-15 04:00:00 4.3 0 Calma 9 Noroeste 0 972.7 -1.9 100
2020-03-15 03:00:00 5.8 4 Sur 9 Sur 0 973.2 -2.1 100
2020-03-15 02:00:00 5.6 3 Sudeste 8 Sudeste 0 973.6 -2.2 100
2020-03-15 01:00:00 6.3 0 Calma 8 Norte 0 974.6 -1.4 100
2020-03-15 00:00:00 7 6 Norte 15 Norte 0 975.3 -1 100
2020-03-14 23:00:00 6.6 10 Norte 17 Norte 0 975.8 -0.5 99
2020-03-14 22:00:00 7.4 12 Norte 21 Norte 0 976 -0.2 95
2020-03-14 21:00:00 8.8 12 Norte 22 Norte 0 976.3 0.4 87
2020-03-14 20:00:00 10.7 13 Norte 18 Norte 0 976.3 0 81
2020-03-14 19:00:00 13.6 10 Norte 17 Norte 0 976.2 -0.5 71
2020-03-14 18:00:00 16.5 6 Norte 13 Nordeste 0 975.9 -1.5 59
2020-03-14 17:00:00 16.8 6 Norte 21 Norte 0 976.3 -2.1 57
2020-03-14 16:00:00 16.4 6 Norte 18 Norte 0 976.7 -2.5 53
2020-03-14 15:00:00 15.6 8 Norte 21 Nordeste 0 977.4 -2.6 59
2020-03-14 14:00:00 14.3 8 Norte 17 Norte 0 978.4 -2.1 61
2020-03-14 13:00:00 13.1 6 Este 18 Sudeste 0 979.2 -1.5 66
2020-03-14 12:00:00 11.3 4 Este 18 Sudeste 0 980 -0.6 71
2020-03-14 11:00:00 9.3 7 Este 15 Sudeste 0 980.5 0.1 79
2020-03-14 10:00:00 7.3 4 Sudeste 11 Sudeste 0 980.7 0.3 86
2020-03-14 09:00:00 4.5 3 Sudeste 11 Sudeste 0 980.6 0.5 95
2020-03-14 08:00:00 3.7 0 Calma 9 Este 0 980.4 0.3 96
2020-03-14 07:00:00 3.4 3 Sur 8 Nordeste 0 980.4 0.1 97
2020-03-14 06:00:00 4.2 0 Calma 8 Nordeste 0 980.1 -0.5 97
2020-03-14 05:00:00 3.3 2 Norte 9 Norte 0 980.1 -0.5 99
2020-03-14 04:00:00 3.6 3 Norte 9 Norte 0 980.3 -0.8 99
2020-03-14 03:00:00 3.8 3 Norte 8 Nordeste 0 980.6 -0.7 100
2020-03-14 02:00:00 4.5 2 Nordeste 8 Este 0 980.6 -0.5 100
2020-03-14 01:00:00 5 0 Calma 11 Norte 0 981.1 0.5 99
2020-03-14 00:00:00 5.5 3 Norte 15 Norte 0 981.3 1.1 98
2020-03-13 23:00:00 6.4 9 Norte 17 Norte 0 981.1 1.6 96
2020-03-13 22:00:00 6.4 6 Norte 22 Norte 0 980.6 1.6 95
2020-03-13 21:00:00 7.2 12 Norte 24 Norte 0 980.2 1.6 93
2020-03-13 20:00:00 8.3 13 Norte 24 Norte 0 979.5 0.8 89
2020-03-13 19:00:00 10.6 13 Norte 28 Norte 0 979 -0.3 77
2020-03-13 18:00:00 12.4 9 Norte 28 Norte 0 978.6 -1 72
2020-03-13 17:00:00 12.7 8 Nordeste 28 Norte 0 978.7 -1.5 70
2020-03-13 16:00:00 12 12 Norte 28 Norte 0 979.3 -1.3 72
2020-03-13 15:00:00 11.5 13 Norte 32 Norte 0 979.6 -1.2 75
2020-03-13 14:00:00 11.6 12 Norte 30 Nordeste 0 980.2 -0.3 74
2020-03-13 13:00:00 10.4 11 Norte 30 Norte 0 980.6 0.4 78
2020-03-13 12:00:00 9.1 10 Norte 33 Norte 0 980.8 1.1 82
2020-03-13 11:00:00 8.3 16 Norte 35 Norte 0 980.5 1 83
2020-03-13 10:00:00 7.8 14 Norte 30 Norte 0 980.2 0.9 85
2020-03-13 09:00:00 6.7 14 Norte 26 Norte 0 979.7 0.5 89
2020-03-13 08:00:00 6.6 8 Norte 22 Norte 0 979.5 0 89
2020-03-13 07:00:00 6.4 10 Norte 26 Norte 0 979.3 -0.8 88
2020-03-13 06:00:00 6.5 8 Norte 22 Norte 0 979.2 -1.2 86
2020-03-13 05:00:00 6.6 9 Norte 32 Norte 0 979.5 -1.2 86
2020-03-13 04:00:00 6.6 12 Norte 33 Norte 0 980.1 -0.7 86
2020-03-13 03:00:00 6.4 12 Norte 26 Norte 0 980.4 -0.5 86
2020-03-13 02:00:00 5.8 13 Norte 30 Nordeste 0 980.7 -0.1 89
2020-03-13 01:00:00 5.7 10 Norte 24 Norte 0 980.8 0.1 91
2020-03-13 00:00:00 6 9 Norte 30 Nordeste 0 980.9 0.4 89
2020-03-12 23:00:00 6.4 12 Norte 22 Nordeste 0 980.8 0.5 88
2020-03-12 22:00:00 7.7 6 Norte 30 Norte 0 980.7 0.7 84
2020-03-12 21:00:00 7.9 9 Norte 30 Norte 0 980.5 0.7 86
2020-03-12 20:00:00 8 13 Norte 28 Norte 0 980.3 0.6 86
2020-03-12 19:00:00 8.8 15 Norte 35 Norte 0 980 0.5 83
2020-03-12 18:00:00 9.1 15 Norte 35 Norte 0 979.8 0 84
2020-03-12 17:00:00 9.2 18 Norte 37 Norte 0 979.7 -0.6 86
2020-03-12 16:00:00 10.3 22 Norte 39 Norte 0 979.5 -1.2 85
2020-03-12 15:00:00 11.1 18 Norte 33 Nordeste 0 979.8 -1.1 82
2020-03-12 14:00:00 11.6 14 Norte 28 Nordeste 0 980.3 -0.4 80
2020-03-12 13:00:00 12.4 11 Norte 24 Norte 0 980.7 0.1 76
2020-03-12 12:00:00 11.3 12 Norte 24 Norte 0 980.9 0.9 83
2020-03-12 11:00:00 11 8 Norte 22 Norte 0 980.7 1.4 83
2020-03-12 10:00:00 10.6 7 Norte 15 Nordeste 0 980.6 1.4 90
2020-03-12 09:00:00 9.3 4 Norte 13 Norte 0 980 1 98
2020-03-12 08:00:00 8.4 3 Norte 11 Nordeste 0 979.3 0.3 98
2020-03-12 07:00:00 8.2 0 Calma 8 Norte 0 979.2 -0.2 98
2020-03-12 06:00:00 8.7 3 Norte 9 Este 0 979 -0.8 98
2020-03-12 05:00:00 8.9 4 Norte 11 Norte 0 979 -0.9 97
2020-03-12 04:00:00 9 5 Norte 15 Norte 0 979.4 -0.6 95
2020-03-12 03:00:00 8.6 13 Norte 13 Norte 0 979.8 -0.4 95
2020-03-12 02:00:00 9.9 6 Norte 17 Norte 0 979.9 -0.1 91
2020-03-12 01:00:00 9.6 9 Norte 11 Norte 0 980 0 94
2020-03-12 00:00:00 11.5 6 Norte 11 Norte 0 980.2 0.3 89
2020-03-11 23:00:00 11.7 9 Norte 18 Norte 0 980 0.3 92
2020-03-11 22:00:00 12 14 Noroeste 21 Noroeste 0 980 0.3 92
2020-03-11 21:00:00 12.4 13 Noroeste 17 Noroeste 0 979.9 0.7 91
2020-03-11 20:00:00 13 13 Noroeste 21 Norte 0 979.7 0.6 90
2020-03-11 19:00:00 14.4 17 Norte 22 Norte 0 979.7 0.6 88
2020-03-11 18:00:00 16.4 13 Noroeste 18 Norte 0 979.2 -0.3 79
2020-03-11 17:00:00 17.5 14 Noroeste 22 Noroeste 0 979.1 -1.1 73
2020-03-11 16:00:00 17.2 11 Oeste 24 Noroeste 0 979.1 -1.6 74
2020-03-11 15:00:00 16.7 15 Noroeste 26 Oeste 0 979.5 -1.6 77
2020-03-11 14:00:00 14.8 6 Noroeste 22 Noroeste 0 980.2 -0.9 84
2020-03-11 13:00:00 12.2 8 Noroeste 13 Noroeste 0 980.7 -0.3 93
2020-03-11 12:00:00 10.7 4 Norte 11 Norte 0 981.1 0.1 100
2020-03-11 11:00:00 9.8 5 Sur 8 Sur 0 981.1 0.1 100
2020-03-11 10:00:00 9.6 2 Sudeste 8 Norte 0 981 0 100
2020-03-11 09:00:00 9.4 0 Calma 4 Norte 0 981 -0.2 100
2020-03-11 08:00:00 9.1 0 Calma 8 Sur 0 981 -0.2 100
2020-03-11 07:00:00 9 0 Calma 5 Sudeste 0 981 -0.6 100
2020-03-11 06:00:00 9.2 3 Sudeste 8 Este 0 981.2 -1 100
2020-03-11 05:00:00 9.5 3 Sudeste 4 Sudeste 0 981.2 -1.4 100
2020-03-11 04:00:00 9.5 0 Calma 8 Sur 0 981.6 -1.3 100
2020-03-11 03:00:00 9.9 0 Calma 8 Sur 0 982.2 -1 100
2020-03-11 02:00:00 10 3 Sur 8 Sur 0 982.6 -0.8 100
2020-03-11 01:00:00 10.1 3 Sudeste 8 Sudeste 0 982.9 -0.5 99
2020-03-11 00:00:00 10.3 5 Sudoeste 11 Sudoeste 0 983.2 -0.2 99
2020-03-10 23:00:00 10.4 5 Sur 11 Sur 0 983.4 0.3 99
2020-03-10 22:00:00 10.7 6 Sudoeste 13 Sur 0 983.4 0.4 96
2020-03-10 21:00:00 11.3 3 Sudoeste 9 Oeste 0 983.4 0.6 92
2020-03-10 20:00:00 11.7 6 Oeste 11 Nordeste 0 983.1 0.3 89
2020-03-10 19:00:00 12.6 8 Sudoeste 22 Sudoeste 0 983 -0.2 85
2020-03-10 18:00:00 12.8 10 Sudoeste 24 Oeste 0 982.8 -0.5 86
2020-03-10 17:00:00 13.9 16 Sudoeste 28 Sudoeste 0 982.8 -1 81
2020-03-10 16:00:00 13.2 15 Oeste 26 Oeste 0 983.2 -1.3 83
2020-03-10 15:00:00 14.1 15 Oeste 26 Sudoeste 0 983.3 -1.2 80
2020-03-10 14:00:00 12.8 14 Sudoeste 28 Oeste 0 983.8 -0.5 84
2020-03-10 13:00:00 11.9 13 Oeste 28 Oeste 0 984.5 0.6 86
2020-03-10 12:00:00 10.9 13 Sudoeste 24 Sur 0 984.5 0.7 88
2020-03-10 11:00:00 9.4 13 Sudoeste 26 Sudoeste 0 984.3 0.9 93
2020-03-10 10:00:00 7.6 6 Sur 13 Sur 0 983.9 0.4 99
2020-03-10 09:00:00 6.6 3 Sur 8 Sur 0 983.8 0.3 100
2020-03-10 08:00:00 6.3 6 Sur 13 Sudoeste 0 983.4 -0.2 99
2020-03-10 07:00:00 5.8 0 Calma 5 Sudeste 0 983.5 -0.4 100
2020-03-10 06:00:00 6.3 4 Sur 9 Sur 0 983.5 -0.8 99
2020-03-10 05:00:00 7.3 2 Sudeste 13 Sudoeste 0 983.6 -1 97
2020-03-10 04:00:00 7.5 5 Sudoeste 13 Sur 0 983.9 -1.3 98
2020-03-10 03:00:00 6.8 2 Sudoeste 8 Sur 0 984.3 -1.1 99
2020-03-10 02:00:00 6.6 5 Sur 8 Sur 0 984.6 -1.4 99
2020-03-10 01:00:00 7.4 3 Sudoeste 9 Sur 0 985.2 -0.3 97
2020-03-10 00:00:00 7.5 3 Sur 11 Sur 0 985.4 -0.2 97
2020-03-09 23:00:00 8.2 2 Sudoeste 11 Oeste 0 986 0.7 92
2020-03-09 22:00:00 8.8 7 Sudoeste 15 Oeste 0 985.5 0.2 89
2020-03-09 21:00:00 9.3 9 Oeste 18 Oeste 0 985.6 0.5 89
2020-03-09 20:00:00 10.4 9 Oeste 13 Oeste 0 985.3 -0.2 84
2020-03-09 19:00:00 12.2 6 Oeste 13 Sudoeste 0 985.3 -0.5 76
2020-03-09 18:00:00 13.3 8 Sudoeste 21 Oeste 0 985.1 -1.1 70
2020-03-09 17:00:00 13.4 9 Sudoeste 21 Sur 0 985.5 -1.5 69
2020-03-09 16:00:00 13.8 5 Oeste 18 Oeste 0 985.8 -1.9 66
2020-03-09 15:00:00 13.1 10 Noroeste 21 Noroeste 0 986.2 -1.7 65
2020-03-09 14:00:00 12.3 9 Oeste 17 Noroeste 0 987 -0.6 67
2020-03-09 13:00:00 11 8 Noroeste 21 Sudoeste 0 987.7 0.3 75
2020-03-09 12:00:00 10.7 8 Oeste 15 Oeste 0 987.9 1.4 79
2020-03-09 11:00:00 9.3 9 Sur 13 Sur 0 987.6 1.7 87
2020-03-09 10:00:00 6.6 6 Sur 11 Sur 0 987.4 1.9 100
2020-03-09 09:00:00 5.4 6 Sur 9 Sur 0 986.5 1.1 100
2020-03-09 08:00:00 4.3 8 Sur 9 Sur 0 985.9 0.7 100
2020-03-09 07:00:00 5.8 5 Sudoeste 9 Sur 0 985.5 -0.3 98
2020-03-09 06:00:00 6 5 Oeste 9 Oeste 0 985.4 -0.6 96
2020-03-09 05:00:00 6.5 5 Oeste 9 Oeste 0 985.2 -0.5 94
2020-03-09 04:00:00 6.6 5 Oeste 13 Oeste 0 985.8 -0.3 94
2020-03-09 03:00:00 8.2 6 Oeste 13 Sudoeste 0 986 0 90
2020-03-09 02:00:00 7.5 6 Sudoeste 9 Sudoeste 0 985.7 0.1 94
2020-03-09 01:00:00 7.3 3 Sudoeste 13 Oeste 0 986.1 1.1 95
2020-03-09 00:00:00 8.8 6 Noroeste 15 Oeste 0 986 1 90